createdAt,value
2023-05-19T00:00:29.788Z,16.42
2023-05-19T00:03:01.729Z,15.88
2023-05-19T00:05:31.727Z,15.95
2023-05-19T00:08:04.405Z,15.65
2023-05-19T00:10:34.333Z,15.73
2023-05-19T00:13:04.189Z,15.70
2023-05-19T00:15:33.985Z,15.32
2023-05-19T00:18:03.870Z,15.73
2023-05-19T00:20:33.645Z,15.73
2023-05-19T00:23:03.515Z,15.20
2023-05-19T00:25:32.711Z,14.00
2023-05-19T00:28:03.768Z,14.02
2023-05-19T00:30:33.579Z,15.93
2023-05-19T00:33:02.997Z,14.85
2023-05-19T00:35:32.540Z,14.45
2023-05-19T00:38:01.828Z,15.40
2023-05-19T00:40:33.123Z,14.52
2023-05-19T00:43:02.571Z,14.77
2023-05-19T00:45:32.170Z,15.02
2023-05-19T00:48:01.513Z,14.50
2023-05-19T00:50:31.437Z,13.80
2023-05-19T00:53:00.935Z,14.45
2023-05-19T00:55:32.640Z,15.80
2023-05-19T00:58:02.923Z,14.75
2023-05-19T01:00:33.495Z,15.05
2023-05-19T01:03:04.078Z,14.90
2023-05-19T01:05:33.722Z,16.70
2023-05-19T01:08:02.985Z,16.50
2023-05-19T01:10:32.574Z,18.33
2023-05-19T01:13:03.748Z,18.33
2023-05-19T01:15:41.834Z,18.02
2023-05-19T01:18:18.183Z,19.10
2023-05-19T01:21:00.378Z,20.05
2023-05-19T01:23:55.513Z,20.70
2023-05-19T01:26:51.217Z,19.33
2023-05-19T01:30:05.005Z,18.70
2023-05-19T01:32:36.130Z,17.75
2023-05-19T01:35:07.963Z,18.58
2023-05-19T01:37:40.518Z,17.38
2023-05-19T01:40:12.718Z,17.10
2023-05-19T01:42:43.142Z,18.05
2023-05-19T01:45:14.600Z,16.60
2023-05-19T01:47:46.345Z,17.48
2023-05-19T01:50:16.427Z,18.13
2023-05-19T01:52:45.658Z,16.63
2023-05-19T01:55:15.073Z,16.60
2023-05-19T01:58:02.962Z,17.55
2023-05-19T02:00:42.558Z,16.10
2023-05-19T02:03:17.777Z,17.20
2023-05-19T02:05:59.368Z,15.70
2023-05-19T02:08:34.319Z,15.73
2023-05-19T02:11:13.419Z,17.95
2023-05-19T02:13:51.021Z,19.27
2023-05-19T02:16:26.638Z,16.05
2023-05-19T02:18:58.409Z,15.50
2023-05-19T02:21:28.817Z,16.42
2023-05-19T02:23:57.993Z,16.23
2023-05-19T02:26:27.568Z,15.75
2023-05-19T02:28:56.878Z,16.98
2023-05-19T02:31:26.880Z,16.15
2023-05-19T02:33:58.201Z,15.50
2023-05-19T02:36:27.917Z,14.32
2023-05-19T02:38:57.253Z,14.80
2023-05-19T02:41:27.322Z,13.98
2023-05-19T02:43:57.197Z,12.80
2023-05-19T02:46:26.486Z,13.85
2023-05-19T02:48:56.529Z,13.32
2023-05-19T02:51:25.870Z,12.57
2023-05-19T02:53:55.258Z,12.88
2023-05-19T02:56:25.403Z,12.02
2023-05-19T02:58:55.463Z,11.82
2023-05-19T03:01:24.869Z,12.65
2023-05-19T03:03:54.436Z,12.60
2023-05-19T03:06:24.731Z,13.63
2023-05-19T03:08:54.088Z,14.93
2023-05-19T03:11:24.345Z,15.38
2023-05-19T03:13:54.471Z,17.58
2023-05-19T03:16:23.689Z,18.27
2023-05-19T03:18:53.553Z,18.15
2023-05-19T03:21:22.963Z,19.40
2023-05-19T03:23:52.600Z,20.55
2023-05-19T03:26:24.316Z,20.42
2023-05-19T03:28:53.991Z,21.25
2023-05-19T03:31:24.201Z,21.98
2023-05-19T03:33:53.550Z,22.23
2023-05-19T03:36:23.949Z,20.00
2023-05-19T03:38:53.702Z,20.42
2023-05-19T03:41:23.364Z,19.90
2023-05-19T03:43:53.296Z,20.38
2023-05-19T03:46:25.997Z,18.80
2023-05-19T03:49:25.418Z,17.35
2023-05-19T03:52:14.031Z,19.10
2023-05-19T03:54:57.114Z,18.83
2023-05-19T03:57:26.544Z,14.02
2023-05-19T03:59:55.999Z,20.45
2023-05-19T04:02:25.524Z,20.85
2023-05-19T04:04:55.354Z,20.17
2023-05-19T04:07:24.869Z,17.48
2023-05-19T04:09:54.273Z,15.43
2023-05-19T04:12:23.797Z,14.45
2023-05-19T04:14:55.182Z,18.20
2023-05-19T04:17:30.361Z,22.52
2023-05-19T04:20:00.296Z,21.35
2023-05-19T04:22:30.552Z,15.13
2023-05-19T04:25:01.372Z,14.00
2023-05-19T04:27:32.999Z,12.48
2023-05-19T04:30:02.368Z,12.63
2023-05-19T04:32:32.695Z,15.40
2023-05-19T04:35:09.449Z,11.93
2023-05-19T04:37:40.311Z,10.98
2023-05-19T04:40:12.201Z,10.25
2023-05-19T04:42:44.224Z,10.93
2023-05-19T04:45:15.041Z,10.38
2023-05-19T04:47:49.365Z,12.68
2023-05-19T04:50:18.737Z,11.55
2023-05-19T04:52:47.946Z,10.40
2023-05-19T04:55:18.426Z,9.55
2023-05-19T04:57:49.193Z,9.93
2023-05-19T05:00:20.031Z,10.13
2023-05-19T05:03:00.785Z,9.18
2023-05-19T05:05:33.094Z,9.07
2023-05-19T05:08:03.103Z,8.43
2023-05-19T05:10:37.986Z,7.68
2023-05-19T05:13:09.972Z,7.07
2023-05-19T05:15:42.074Z,7.88
2023-05-19T05:18:13.220Z,7.82
2023-05-19T05:20:44.814Z,8.25
2023-05-19T05:23:17.958Z,6.70
2023-05-19T05:25:49.889Z,7.38
2023-05-19T05:28:21.264Z,6.72
2023-05-19T05:30:51.346Z,7.07
2023-05-19T05:33:20.857Z,7.32
2023-05-19T05:35:51.650Z,5.93
2023-05-19T05:38:23.779Z,6.28
2023-05-19T05:40:56.223Z,6.18
2023-05-19T05:43:25.698Z,5.30
2023-05-19T05:46:00.390Z,4.97
2023-05-19T05:48:30.120Z,6.15
2023-05-19T05:51:01.601Z,5.40
2023-05-19T05:53:38.470Z,4.90
2023-05-19T05:56:09.770Z,4.93
2023-05-19T05:58:47.730Z,4.85
2023-05-19T06:01:19.023Z,4.25
2023-05-19T06:03:48.447Z,4.60
2023-05-19T06:06:22.558Z,4.18
2023-05-19T06:08:53.662Z,4.80
2023-05-19T06:11:24.719Z,4.68
2023-05-19T06:13:55.863Z,3.95
2023-05-19T06:17:03.728Z,4.30
2023-05-19T06:19:33.895Z,4.35
2023-05-19T06:22:03.323Z,3.83
2023-05-19T06:24:33.290Z,3.97
2023-05-19T06:27:02.682Z,3.83
2023-05-19T06:29:32.168Z,3.88
2023-05-19T06:32:05.028Z,3.90
2023-05-19T06:34:34.646Z,4.68
2023-05-19T06:37:04.190Z,3.78
2023-05-19T06:39:35.663Z,3.65
2023-05-19T06:42:05.404Z,3.78
2023-05-19T06:44:57.980Z,4.20
2023-05-19T06:47:28.465Z,4.00
2023-05-19T06:49:59.087Z,3.90
2023-05-19T06:52:32.360Z,4.05
2023-05-19T06:55:04.057Z,3.92
2023-05-19T06:57:35.322Z,3.65
2023-05-19T07:00:08.109Z,3.50
2023-05-19T07:02:37.955Z,3.25
2023-05-19T07:05:09.443Z,3.65
2023-05-19T07:07:39.035Z,3.67
2023-05-19T07:10:13.531Z,3.20
2023-05-19T07:12:43.163Z,4.05
2023-05-19T07:15:12.968Z,3.10
2023-05-19T07:17:42.953Z,3.67
2023-05-19T07:20:13.354Z,3.20
2023-05-19T07:22:42.757Z,3.47
2023-05-19T07:25:11.993Z,2.78
2023-05-19T07:27:42.512Z,2.85
2023-05-19T07:30:12.256Z,2.90
2023-05-19T07:32:42.402Z,2.90
2023-05-19T07:35:11.687Z,3.47
2023-05-19T07:37:41.354Z,2.75
2023-05-19T07:40:11.542Z,3.47
2023-05-19T07:42:40.883Z,3.05
2023-05-19T07:45:10.957Z,3.30
2023-05-19T07:47:40.462Z,2.88
2023-05-19T07:50:10.183Z,3.40
2023-05-19T07:52:40.105Z,3.08
2023-05-19T07:55:09.416Z,3.53
2023-05-19T07:57:39.210Z,3.28
2023-05-19T08:00:12.903Z,3.28
2023-05-19T08:02:43.462Z,3.30
2023-05-19T08:05:13.052Z,3.67
2023-05-19T08:07:42.576Z,2.97
2023-05-19T08:10:11.920Z,3.30
2023-05-19T08:12:41.250Z,3.40
2023-05-19T08:15:12.721Z,3.17
2023-05-19T08:17:42.234Z,3.30
2023-05-19T08:20:15.269Z,3.50
2023-05-19T08:22:45.170Z,3.47
2023-05-19T08:25:14.974Z,3.83
2023-05-19T08:27:44.308Z,4.53
2023-05-19T08:30:14.258Z,3.45
2023-05-19T08:32:43.817Z,3.25
2023-05-19T08:35:13.054Z,3.20
2023-05-19T08:37:42.531Z,3.20
2023-05-19T08:40:20.122Z,3.25
2023-05-19T08:42:50.430Z,2.83
2023-05-19T08:45:19.905Z,3.35
2023-05-19T08:47:50.703Z,3.38
2023-05-19T08:50:30.181Z,3.58
2023-05-19T08:53:07.186Z,3.30
2023-05-19T08:55:54.349Z,3.00
2023-05-19T08:58:24.739Z,3.65
2023-05-19T09:00:55.322Z,3.60
2023-05-19T09:03:27.696Z,2.90
2023-05-19T09:05:57.063Z,3.22
2023-05-19T09:08:26.428Z,3.03
2023-05-19T09:10:55.829Z,2.90
2023-05-19T09:13:25.699Z,3.75
2023-05-19T09:15:55.343Z,3.45
2023-05-19T09:18:29.416Z,2.90
2023-05-19T09:21:06.290Z,2.80
2023-05-19T09:23:36.077Z,3.42
2023-05-19T09:26:10.024Z,2.80
2023-05-19T09:28:39.618Z,3.95
2023-05-19T09:31:10.484Z,3.22
2023-05-19T09:33:44.313Z,3.70
2023-05-19T09:36:15.667Z,3.22
2023-05-19T09:38:47.295Z,3.53
2023-05-19T09:41:17.472Z,3.42
2023-05-19T09:43:57.541Z,3.60
2023-05-19T09:46:34.235Z,3.30
2023-05-19T09:49:14.163Z,3.20
2023-05-19T09:51:43.938Z,3.22
2023-05-19T09:54:19.775Z,3.25
2023-05-19T09:56:58.554Z,3.05
2023-05-19T09:59:32.286Z,3.50
2023-05-19T10:02:03.708Z,3.75
2023-05-19T10:04:33.528Z,3.35
2023-05-19T10:07:06.565Z,3.42
2023-05-19T10:09:39.733Z,3.17
2023-05-19T10:12:13.231Z,3.53
2023-05-19T10:14:42.937Z,3.78
2023-05-19T10:17:13.736Z,3.50
2023-05-19T10:19:45.963Z,3.55
2023-05-19T10:22:15.679Z,3.70
2023-05-19T10:24:53.106Z,3.30
2023-05-19T10:27:24.005Z,3.42
2023-05-19T10:29:56.456Z,3.63
2023-05-19T10:32:30.989Z,3.00
2023-05-19T10:35:19.201Z,2.95
2023-05-19T10:38:01.139Z,3.45
2023-05-19T10:40:42.964Z,3.55
2023-05-19T10:43:13.007Z,4.75
2023-05-19T10:45:55.001Z,3.58
2023-05-19T10:48:24.826Z,3.40
2023-05-19T10:50:58.675Z,3.78
2023-05-19T10:53:36.338Z,3.03
2023-05-19T10:56:08.118Z,4.03
2023-05-19T10:58:46.929Z,3.88
2023-05-19T11:01:25.878Z,3.63
2023-05-19T11:03:58.376Z,3.17
2023-05-19T11:06:33.216Z,3.17
2023-05-19T11:09:13.012Z,3.50
2023-05-19T11:11:56.316Z,3.97
2023-05-19T11:14:28.712Z,4.15
2023-05-19T11:17:00.444Z,3.55
2023-05-19T11:19:39.345Z,2.95
2023-05-19T11:22:14.141Z,4.13
2023-05-19T11:24:54.574Z,4.03
2023-05-19T11:27:34.869Z,3.30
2023-05-19T11:30:11.024Z,2.97
2023-05-19T11:32:43.396Z,4.57
2023-05-19T11:35:14.038Z,3.83
2023-05-19T11:37:44.534Z,3.47
2023-05-19T11:40:16.936Z,3.45
2023-05-19T11:42:46.702Z,3.20
2023-05-19T11:45:16.087Z,3.70
2023-05-19T11:48:01.178Z,3.40
2023-05-19T11:50:33.558Z,3.08
2023-05-19T11:53:03.332Z,3.90
2023-05-19T11:55:33.820Z,3.53
2023-05-19T11:58:05.869Z,3.63
2023-05-19T12:00:46.934Z,3.40
2023-05-19T12:03:16.889Z,3.85
2023-05-19T12:05:47.957Z,4.75
2023-05-19T12:08:22.785Z,3.57
2023-05-19T12:10:53.713Z,3.17
2023-05-19T12:13:24.592Z,3.25
2023-05-19T12:15:54.587Z,3.85
2023-05-19T12:18:29.031Z,4.05
2023-05-19T12:20:58.621Z,3.80
2023-05-19T12:23:31.922Z,4.22
2023-05-19T12:26:02.293Z,3.85
2023-05-19T12:28:35.074Z,3.42
2023-05-19T12:31:04.670Z,3.70
2023-05-19T12:33:36.008Z,4.20
2023-05-19T12:36:06.912Z,3.65
2023-05-19T12:38:38.487Z,4.03
2023-05-19T12:41:08.317Z,4.00
2023-05-19T12:43:38.822Z,4.03
2023-05-19T12:46:15.360Z,4.05
2023-05-19T12:48:45.991Z,4.05
2023-05-19T12:51:21.839Z,3.67
2023-05-19T12:53:53.037Z,3.90
2023-05-19T12:56:23.368Z,4.22
2023-05-19T12:58:59.571Z,4.32
2023-05-19T13:01:32.548Z,4.25
2023-05-19T13:06:35.958Z,3.22
2023-05-19T13:09:05.358Z,3.90
2023-05-19T13:11:34.944Z,4.85
2023-05-19T13:14:04.357Z,4.40
2023-05-19T13:16:34.606Z,4.40
2023-05-19T13:19:06.197Z,4.18
2023-05-19T13:21:36.876Z,4.70
2023-05-19T13:24:06.731Z,5.07
2023-05-19T13:26:36.195Z,4.38
2023-05-19T13:29:05.786Z,4.07
2023-05-19T13:31:35.356Z,4.30
2023-05-19T13:34:05.598Z,4.47
2023-05-19T13:36:36.204Z,4.65
2023-05-19T13:39:06.531Z,4.78
2023-05-19T13:41:36.911Z,4.38
2023-05-19T13:44:06.054Z,6.13
2023-05-19T13:46:44.926Z,5.00
2023-05-19T13:49:15.845Z,4.97
2023-05-19T13:51:45.568Z,5.03
2023-05-19T13:54:14.796Z,5.63
2023-05-19T13:56:45.951Z,4.65
2023-05-19T13:59:15.448Z,5.50
2023-05-19T14:01:46.698Z,5.28
2023-05-19T14:04:19.686Z,5.28
2023-05-19T14:06:49.839Z,5.60
2023-05-19T14:09:19.031Z,5.43
2023-05-19T14:11:49.459Z,6.20
2023-05-19T14:14:19.257Z,5.75
2023-05-19T14:16:48.826Z,6.00
2023-05-19T14:19:18.329Z,6.38
2023-05-19T14:21:51.093Z,5.78
2023-05-19T14:24:21.286Z,5.47
2023-05-19T14:26:51.112Z,6.00
2023-05-19T14:29:21.201Z,6.20
2023-05-19T14:31:50.716Z,6.18
2023-05-19T14:34:22.119Z,5.28
2023-05-19T14:36:52.174Z,6.32
2023-05-19T14:39:21.809Z,5.18
2023-05-19T14:41:53.145Z,6.45
2023-05-19T14:44:22.619Z,7.00
2023-05-19T14:46:51.992Z,5.60
2023-05-19T14:49:21.453Z,6.28
2023-05-19T14:51:50.787Z,6.50
2023-05-19T14:54:20.414Z,6.45
2023-05-19T14:56:49.856Z,7.63
2023-05-19T14:59:19.840Z,5.95
2023-05-19T15:01:49.108Z,7.25
2023-05-19T15:04:18.932Z,5.32
2023-05-19T15:06:55.029Z,6.20
2023-05-19T15:09:35.066Z,5.40
2023-05-19T15:12:04.443Z,6.25
2023-05-19T15:14:34.608Z,5.53
2023-05-19T15:17:04.051Z,6.82
2023-05-19T15:19:33.853Z,6.30
2023-05-19T15:22:03.590Z,5.57
2023-05-19T15:24:32.915Z,5.90
2023-05-19T15:27:03.141Z,6.80
2023-05-19T15:29:32.754Z,6.47
2023-05-19T15:32:02.141Z,5.60
2023-05-19T15:34:35.898Z,6.20
2023-05-19T15:37:06.001Z,6.05
2023-05-19T15:39:36.014Z,6.88
2023-05-19T15:42:05.736Z,6.03
2023-05-19T15:44:35.187Z,5.78
2023-05-19T15:47:04.965Z,6.97
2023-05-19T15:49:34.554Z,6.20
2023-05-19T15:52:04.873Z,6.00
2023-05-19T15:54:34.349Z,6.63
2023-05-19T15:57:03.533Z,7.18
2023-05-19T15:59:33.721Z,7.60
2023-05-19T16:02:03.706Z,8.05
2023-05-19T16:04:33.049Z,7.65
2023-05-19T16:07:02.490Z,7.65
2023-05-19T16:09:31.776Z,7.18
2023-05-19T16:12:01.516Z,6.53
2023-05-19T16:14:34.507Z,7.30
2023-05-19T16:17:12.426Z,6.63
2023-05-19T16:19:42.224Z,7.57
2023-05-19T16:22:11.820Z,7.28
2023-05-19T16:24:41.267Z,7.95
2023-05-19T16:27:11.335Z,7.45
2023-05-19T16:29:41.322Z,7.10
2023-05-19T16:32:10.655Z,7.05
2023-05-19T16:34:40.170Z,7.63
2023-05-19T16:37:09.504Z,7.38
2023-05-19T16:39:38.820Z,7.28
2023-05-19T16:42:08.316Z,6.75
2023-05-19T16:44:37.619Z,6.90
2023-05-19T16:47:07.920Z,7.75
2023-05-19T16:49:37.351Z,7.05
2023-05-19T16:52:06.995Z,7.00
2023-05-19T16:54:36.804Z,8.25
2023-05-19T16:57:06.925Z,7.15
2023-05-19T16:59:36.404Z,7.32
2023-05-19T17:02:06.059Z,7.32
2023-05-19T17:04:35.963Z,6.72
2023-05-19T17:07:06.047Z,7.13
2023-05-19T17:09:35.670Z,6.40
2023-05-19T17:12:05.887Z,6.70
2023-05-19T17:14:36.111Z,7.53
2023-05-19T17:17:06.318Z,7.10
2023-05-19T17:19:36.969Z,6.68
2023-05-19T17:22:06.794Z,6.82
2023-05-19T17:24:36.253Z,7.35
2023-05-19T17:27:07.067Z,5.78
2023-05-19T17:29:37.326Z,7.47
2023-05-19T17:32:07.527Z,7.22
2023-05-19T17:34:37.263Z,7.10
2023-05-19T17:37:07.778Z,7.47
2023-05-19T17:39:37.725Z,7.57
2023-05-19T17:42:08.961Z,7.60
2023-05-19T17:44:39.295Z,7.82
2023-05-19T17:47:09.516Z,8.50
2023-05-19T17:49:41.533Z,8.27
2023-05-19T17:52:12.156Z,9.88
2023-05-19T17:54:42.330Z,8.60
2023-05-19T17:57:16.488Z,9.30
2023-05-19T17:59:46.932Z,9.02
2023-05-19T18:02:16.960Z,8.48
2023-05-19T18:04:47.450Z,7.60
2023-05-19T18:07:17.982Z,8.32
2023-05-19T18:09:49.133Z,8.52
2023-05-19T18:12:19.641Z,9.48
2023-05-19T18:14:49.618Z,10.38
2023-05-19T18:17:19.392Z,9.98
2023-05-19T18:19:50.977Z,10.65
2023-05-19T18:22:20.946Z,11.40
2023-05-19T18:24:51.052Z,12.02
2023-05-19T18:27:21.626Z,11.93
2023-05-19T18:29:51.854Z,11.90
2023-05-19T18:32:22.231Z,11.45
2023-05-19T18:34:52.177Z,11.00
2023-05-19T18:37:22.335Z,11.00
2023-05-19T18:39:53.199Z,9.75
2023-05-19T18:42:23.639Z,9.80
2023-05-19T18:44:53.910Z,10.07
2023-05-19T18:47:24.481Z,11.88
2023-05-19T18:49:54.380Z,18.77
2023-05-19T18:52:24.115Z,16.73
2023-05-19T18:54:54.728Z,15.75
2023-05-19T18:57:24.881Z,17.45
2023-05-19T18:59:55.064Z,22.85
2023-05-19T19:02:24.676Z,24.08
2023-05-19T19:04:54.608Z,28.77
2023-05-19T19:07:27.996Z,28.85
2023-05-19T19:12:27.574Z,29.38
2023-05-19T19:14:57.738Z,31.75
2023-05-19T19:17:27.979Z,31.55
2023-05-19T19:19:57.727Z,32.70
2023-05-19T19:22:27.725Z,31.10
2023-05-19T19:24:57.162Z,28.73
2023-05-19T19:27:32.438Z,27.63
2023-05-19T19:30:02.902Z,27.58
2023-05-19T19:32:33.681Z,25.83
2023-05-19T19:35:03.314Z,26.08
2023-05-19T19:37:33.459Z,25.92
2023-05-19T19:40:03.171Z,25.83
2023-05-19T19:42:32.941Z,25.20
2023-05-19T19:45:02.691Z,22.13
2023-05-19T19:47:31.945Z,21.50
2023-05-19T19:50:03.825Z,21.30
2023-05-19T19:52:33.612Z,22.52
2023-05-19T19:55:03.638Z,22.80
2023-05-19T19:57:35.167Z,22.30
2023-05-19T20:00:09.434Z,20.88
2023-05-19T20:02:55.330Z,22.27
2023-05-19T20:05:29.838Z,21.38
2023-05-19T20:07:58.937Z,20.45
2023-05-19T20:10:29.024Z,23.02
2023-05-19T20:12:59.997Z,23.25
2023-05-19T20:15:29.619Z,21.30
2023-05-19T20:17:58.775Z,21.25
2023-05-19T20:20:28.505Z,21.23
2023-05-19T20:22:57.630Z,21.77
2023-05-19T20:25:27.332Z,20.50
2023-05-19T20:28:06.891Z,19.65
2023-05-19T20:30:36.808Z,19.38
2023-05-19T20:33:06.857Z,18.95
2023-05-19T20:35:36.399Z,18.73
2023-05-19T20:38:05.753Z,18.73
2023-05-19T20:40:35.239Z,17.85
2023-05-19T20:43:04.689Z,15.55
2023-05-19T20:45:34.945Z,14.93
2023-05-19T20:48:04.864Z,16.88
2023-05-19T20:50:34.263Z,15.60
2023-05-19T20:53:03.955Z,14.93
2023-05-19T20:55:33.476Z,15.20
2023-05-19T20:58:02.777Z,15.77
2023-05-19T21:00:32.765Z,15.77
2023-05-19T21:03:03.155Z,15.50
2023-05-19T21:05:33.095Z,15.80
2023-05-19T21:08:02.705Z,16.13
2023-05-19T21:10:32.331Z,15.45
2023-05-19T21:13:01.966Z,16.08
2023-05-19T21:15:31.375Z,15.23
2023-05-19T21:18:01.515Z,15.98
2023-05-19T21:20:30.944Z,15.95
2023-05-19T21:23:00.307Z,15.13
2023-05-19T21:25:29.592Z,14.20
2023-05-19T21:28:02.145Z,13.02
2023-05-19T21:30:31.845Z,13.50
2023-05-19T21:33:01.148Z,13.55
2023-05-19T21:35:30.424Z,13.23
2023-05-19T21:38:03.885Z,12.43
2023-05-19T21:40:39.143Z,12.65
2023-05-19T21:43:08.566Z,12.65
2023-05-19T21:45:38.996Z,11.73
2023-05-19T21:48:08.519Z,13.38
2023-05-19T21:50:38.786Z,13.73
2023-05-19T21:53:08.266Z,12.95
2023-05-19T21:55:37.438Z,12.85
2023-05-19T21:58:07.153Z,12.82
2023-05-19T22:00:37.647Z,13.50
2023-05-19T22:03:07.952Z,12.57
2023-05-19T22:05:39.157Z,13.05
2023-05-19T22:08:09.459Z,12.30
2023-05-19T22:10:38.900Z,13.55
2023-05-19T22:13:08.629Z,13.02
2023-05-19T22:15:38.912Z,12.10
2023-05-19T22:18:08.462Z,12.82
2023-05-19T22:20:38.501Z,13.10
2023-05-19T22:23:08.757Z,11.68
2023-05-19T22:25:37.976Z,12.13
2023-05-19T22:28:09.269Z,11.80
2023-05-19T22:30:41.301Z,12.13
2023-05-19T22:33:11.558Z,9.95
2023-05-19T22:35:41.422Z,10.07
2023-05-19T22:38:10.893Z,10.38
2023-05-19T22:40:40.692Z,10.35
2023-05-19T22:43:09.817Z,10.55
2023-05-19T22:45:39.366Z,10.68
2023-05-19T22:48:08.779Z,10.48
2023-05-19T22:50:38.070Z,11.77
2023-05-19T22:53:07.154Z,10.85
2023-05-19T22:55:36.781Z,11.55
2023-05-19T22:58:07.415Z,11.20
2023-05-19T23:00:38.072Z,11.80
2023-05-19T23:03:07.511Z,11.88
2023-05-19T23:05:36.529Z,11.70
2023-05-19T23:08:06.011Z,12.43
2023-05-19T23:10:35.033Z,11.15
2023-05-19T23:13:04.345Z,11.60
2023-05-19T23:15:33.917Z,12.60
2023-05-19T23:18:08.130Z,12.07
2023-05-19T23:20:37.624Z,11.65
2023-05-19T23:23:06.840Z,11.45
2023-05-19T23:25:36.376Z,11.40
2023-05-19T23:28:05.987Z,12.52
2023-05-19T23:30:38.742Z,11.35
2023-05-19T23:33:08.429Z,12.23
2023-05-19T23:35:37.836Z,12.65
2023-05-19T23:38:07.224Z,11.40
2023-05-19T23:40:36.952Z,14.25
2023-05-19T23:43:06.398Z,12.07
2023-05-19T23:45:36.433Z,12.10
2023-05-19T23:48:06.611Z,11.80
2023-05-19T23:50:36.083Z,13.63
2023-05-19T23:53:05.461Z,12.65
2023-05-19T23:55:34.787Z,13.65
2023-05-19T23:58:05.018Z,12.38
